createdAt,value
2023-04-22T00:00:48.097Z,97158.60
2023-04-22T00:03:15.075Z,97156.40
2023-04-22T00:05:42.678Z,97153.60
2023-04-22T00:08:09.413Z,97151.40
2023-04-22T00:10:36.087Z,97149.40
2023-04-22T00:13:02.751Z,97143.20
2023-04-22T00:15:29.464Z,97144.80
2023-04-22T00:17:57.639Z,97150.20
2023-04-22T00:20:25.684Z,97150.20
2023-04-22T00:22:52.161Z,97154.40
2023-04-22T00:25:19.370Z,97155.20
2023-04-22T00:27:46.208Z,97155.80
2023-04-22T00:30:13.528Z,97155.40
2023-04-22T00:32:40.138Z,97150.80
2023-04-22T00:35:07.755Z,97138.20
2023-04-22T00:37:34.944Z,97140.20
2023-04-22T00:40:01.599Z,97136.60
2023-04-22T00:42:28.605Z,97135.00
2023-04-22T00:44:55.511Z,97127.40
2023-04-22T00:47:26.939Z,97129.40
2023-04-22T00:49:55.152Z,97132.60
2023-04-22T00:52:22.333Z,97131.80
2023-04-22T00:54:49.677Z,97129.80
2023-04-22T00:57:18.490Z,97128.20
2023-04-22T00:59:45.917Z,97127.00
2023-04-22T01:02:13.230Z,97127.80
2023-04-22T01:04:40.278Z,97125.80
2023-04-22T01:07:07.238Z,97122.40
2023-04-22T01:09:35.005Z,97126.20
2023-04-22T01:12:02.467Z,97128.40
2023-04-22T01:14:29.349Z,97128.00
2023-04-22T01:16:57.981Z,97122.80
2023-04-22T01:19:26.018Z,97121.00
2023-04-22T01:21:54.434Z,97121.80
2023-04-22T01:24:21.326Z,97126.80
2023-04-22T01:26:49.539Z,97124.20
2023-04-22T01:29:16.245Z,97128.40
2023-04-22T01:31:43.512Z,97128.20
2023-04-22T01:34:11.215Z,97121.60
2023-04-22T01:36:38.397Z,97129.40
2023-04-22T01:39:05.081Z,97131.00
2023-04-22T01:41:31.981Z,97132.40
2023-04-22T01:44:01.162Z,97129.60
2023-04-22T01:46:27.936Z,97127.60
2023-04-22T01:48:54.606Z,97127.20
2023-04-22T01:51:23.588Z,97124.20
2023-04-22T01:53:51.200Z,97125.00
2023-04-22T01:56:18.543Z,97125.80
2023-04-22T01:58:45.182Z,97125.00
2023-04-22T02:01:14.355Z,97134.60
2023-04-22T02:03:41.799Z,97128.40
2023-04-22T02:06:10.341Z,97126.60
2023-04-22T02:08:37.019Z,97129.60
2023-04-22T02:11:03.978Z,97125.00
2023-04-22T02:13:38.849Z,97121.60
2023-04-22T02:16:07.086Z,97125.00
2023-04-22T02:18:34.254Z,97116.80
2023-04-22T02:21:00.890Z,97117.80
2023-04-22T02:23:28.058Z,97120.20
2023-04-22T02:25:55.968Z,97121.20
2023-04-22T02:28:23.011Z,97121.00
2023-04-22T02:30:49.658Z,97120.40
2023-04-22T02:33:16.301Z,97123.60
2023-04-22T02:35:42.886Z,97123.60
2023-04-22T02:38:10.909Z,97124.20
2023-04-22T02:40:37.444Z,97122.00
2023-04-22T02:43:04.804Z,97120.20
2023-04-22T02:45:31.697Z,97117.40
2023-04-22T02:47:58.481Z,97120.20
2023-04-22T02:50:25.215Z,97123.40
2023-04-22T02:52:52.081Z,97124.00
2023-04-22T02:55:18.838Z,97120.60
2023-04-22T02:57:46.014Z,97122.20
2023-04-22T03:00:13.456Z,97122.60
2023-04-22T03:02:40.331Z,97125.20
2023-04-22T03:05:14.916Z,97123.80
2023-04-22T03:07:41.659Z,97117.40
2023-04-22T03:10:09.453Z,97114.20
2023-04-22T03:12:36.085Z,97116.20
2023-04-22T03:15:03.750Z,97113.80
2023-04-22T03:17:31.455Z,97114.60
2023-04-22T03:19:59.392Z,97115.40
2023-04-22T03:22:26.267Z,97122.00
2023-04-22T03:24:54.129Z,97122.00
2023-04-22T03:27:21.309Z,97126.00
2023-04-22T03:29:47.902Z,97124.20
2023-04-22T03:32:14.770Z,97122.20
2023-04-22T03:34:41.725Z,97118.20
2023-04-22T03:37:09.772Z,97122.40
2023-04-22T03:39:36.786Z,97121.60
2023-04-22T03:42:04.455Z,97124.20
2023-04-22T03:44:32.235Z,97120.20
2023-04-22T03:46:58.869Z,97120.60
2023-04-22T03:49:29.655Z,97126.60
2023-04-22T03:51:56.600Z,97129.40
2023-04-22T03:54:25.379Z,97128.20
2023-04-22T03:56:52.639Z,97129.60
2023-04-22T03:59:21.131Z,97135.00
2023-04-22T04:01:48.729Z,97130.80
2023-04-22T04:04:16.339Z,97139.20
2023-04-22T04:06:51.482Z,97137.80
2023-04-22T04:09:18.121Z,97139.00
2023-04-22T04:11:45.525Z,97141.80
2023-04-22T04:14:12.714Z,97144.00
2023-04-22T04:16:46.015Z,97137.80
2023-04-22T04:19:17.668Z,97135.60
2023-04-22T04:21:44.282Z,97132.80
2023-04-22T04:24:11.046Z,97128.80
2023-04-22T04:26:42.471Z,97121.60
2023-04-22T04:29:13.789Z,97117.20
2023-04-22T04:31:42.716Z,97119.80
2023-04-22T04:34:09.927Z,97117.20
2023-04-22T04:36:39.929Z,97110.00
2023-04-22T04:39:29.194Z,97102.40
2023-04-22T04:41:58.800Z,97099.80
2023-04-22T04:44:31.687Z,97101.00
2023-04-22T04:46:58.876Z,97102.00
2023-04-22T04:49:26.355Z,97096.60
2023-04-22T04:52:01.829Z,97098.20
2023-04-22T04:54:29.153Z,97126.80
2023-04-22T04:56:57.443Z,97136.60
2023-04-22T04:59:24.369Z,97141.60
2023-04-22T05:01:51.547Z,97148.00
2023-04-22T05:04:18.432Z,97148.40
2023-04-22T05:06:45.417Z,97149.20
2023-04-22T05:09:13.349Z,97153.60
2023-04-22T05:11:40.477Z,97160.40
2023-04-22T05:14:18.543Z,97159.80
2023-04-22T05:16:46.043Z,97164.40
2023-04-22T05:19:13.326Z,97165.20
2023-04-22T05:21:40.997Z,97168.00
2023-04-22T05:24:07.773Z,97169.60
2023-04-22T05:26:34.524Z,97170.00
2023-04-22T05:29:01.911Z,97168.00
2023-04-22T05:31:29.122Z,97167.60
2023-04-22T05:33:56.720Z,97169.80
2023-04-22T05:36:23.769Z,97176.40
2023-04-22T05:38:50.506Z,97175.80
2023-04-22T05:41:17.114Z,97181.00
2023-04-22T05:43:44.062Z,97185.20
2023-04-22T05:46:15.231Z,97185.20
2023-04-22T05:48:42.490Z,97185.60
2023-04-22T05:51:15.954Z,97190.20
2023-04-22T05:53:42.639Z,97186.40
2023-04-22T05:56:10.314Z,97186.80
2023-04-22T05:58:38.081Z,97190.60
2023-04-22T06:01:11.600Z,97188.80
2023-04-22T06:03:46.943Z,97192.20
2023-04-22T06:06:13.963Z,97191.00
2023-04-22T06:08:42.623Z,97188.00
2023-04-22T06:11:11.780Z,97183.60
2023-04-22T06:13:38.442Z,97187.00
2023-04-22T06:18:38.486Z,97181.20
2023-04-22T06:21:07.981Z,97187.20
2023-04-22T06:23:37.044Z,97180.40
2023-04-22T06:26:04.273Z,97182.00
2023-04-22T06:28:31.145Z,97179.60
2023-04-22T06:31:02.013Z,97182.00
2023-04-22T06:33:29.184Z,97182.60
2023-04-22T06:35:55.764Z,97186.00
2023-04-22T06:38:22.444Z,97181.80
2023-04-22T06:41:09.706Z,97182.60
2023-04-22T06:43:40.160Z,97182.80
2023-04-22T06:46:10.580Z,97177.80
2023-04-22T06:48:57.145Z,97179.60
2023-04-22T06:51:49.942Z,97177.80
2023-04-22T06:54:17.220Z,97177.40
2023-04-22T06:56:44.202Z,97181.20
2023-04-22T06:59:10.827Z,97183.00
2023-04-22T07:01:37.739Z,97185.00
2023-04-22T07:04:04.578Z,97185.60
2023-04-22T07:06:31.291Z,97186.20
2023-04-22T07:08:58.041Z,97184.40
2023-04-22T07:11:24.674Z,97180.40
2023-04-22T07:14:14.017Z,97175.00
2023-04-22T07:16:40.985Z,97172.00
2023-04-22T07:19:07.922Z,97172.80
2023-04-22T07:21:34.551Z,97168.20
2023-04-22T07:24:01.108Z,97169.60
2023-04-22T07:26:27.760Z,97169.40
2023-04-22T07:28:54.336Z,97173.40
2023-04-22T07:31:20.982Z,97169.60
2023-04-22T07:33:47.669Z,97170.60
2023-04-22T07:36:14.260Z,97168.00
2023-04-22T07:38:40.991Z,97166.20
2023-04-22T07:41:07.601Z,97167.40
2023-04-22T07:43:34.205Z,97168.00
2023-04-22T07:46:00.834Z,97161.80
2023-04-22T07:48:27.466Z,97161.40
2023-04-22T07:50:54.054Z,97163.60
2023-04-22T07:53:20.814Z,97161.60
2023-04-22T07:55:49.519Z,97159.20
2023-04-22T07:58:17.290Z,97159.80
2023-04-22T08:00:44.009Z,97159.20
2023-04-22T08:03:11.033Z,97158.40
2023-04-22T08:05:38.184Z,97164.20
2023-04-22T08:08:06.234Z,97162.20
2023-04-22T08:10:33.408Z,97163.20
2023-04-22T08:13:00.478Z,97155.80
2023-04-22T08:15:27.235Z,97150.80
2023-04-22T08:17:53.923Z,97150.40
2023-04-22T08:20:20.810Z,97148.20
2023-04-22T08:22:47.453Z,97151.80
2023-04-22T08:25:14.226Z,97150.20
2023-04-22T08:27:40.858Z,97151.60
2023-04-22T08:30:08.517Z,97153.80
2023-04-22T08:32:35.518Z,97145.60
2023-04-22T08:35:05.285Z,97151.60
2023-04-22T08:37:32.736Z,97146.60
2023-04-22T08:39:59.316Z,97148.00
2023-04-22T08:42:27.735Z,97153.40
2023-04-22T08:44:54.951Z,97153.60
2023-04-22T08:47:22.032Z,97152.60
2023-04-22T08:49:53.252Z,97149.00
2023-04-22T08:52:20.004Z,97151.20
2023-04-22T08:54:50.309Z,97149.60
2023-04-22T08:57:18.659Z,97151.60
2023-04-22T08:59:46.467Z,97151.00
2023-04-22T09:02:20.965Z,97150.80
2023-04-22T09:04:51.549Z,97151.80
2023-04-22T09:07:28.396Z,97149.60
2023-04-22T09:09:56.411Z,97157.40
2023-04-22T09:12:25.019Z,97156.60
2023-04-22T09:14:54.485Z,97157.20
2023-04-22T09:17:33.345Z,97156.60
2023-04-22T09:20:02.299Z,97155.00
2023-04-22T09:22:42.628Z,97149.00
2023-04-22T09:25:24.365Z,97142.80
2023-04-22T09:27:58.552Z,97139.20
2023-04-22T09:30:37.685Z,97136.80
2023-04-22T09:33:07.510Z,97141.60
2023-04-22T09:35:40.516Z,97139.80
2023-04-22T09:38:10.721Z,97135.00
2023-04-22T09:40:43.171Z,97137.60
2023-04-22T09:43:10.781Z,97137.00
2023-04-22T09:45:42.843Z,97138.20
2023-04-22T09:48:19.117Z,97132.80
2023-04-22T09:50:49.951Z,97133.80
2023-04-22T09:53:20.985Z,97128.80
2023-04-22T09:55:53.961Z,97126.60
2023-04-22T09:58:23.987Z,97128.60
2023-04-22T10:00:56.035Z,97123.20
2023-04-22T10:03:23.100Z,97127.60
2023-04-22T10:05:49.810Z,97123.00
2023-04-22T10:08:17.214Z,97120.00
2023-04-22T10:10:44.744Z,97121.20
2023-04-22T10:13:11.399Z,97119.00
2023-04-22T10:15:42.763Z,97119.20
2023-04-22T10:18:16.624Z,97116.80
2023-04-22T10:20:45.858Z,97117.20
2023-04-22T10:23:21.316Z,97116.40
2023-04-22T10:25:51.450Z,97118.60
2023-04-22T10:28:19.432Z,97115.40
2023-04-22T10:30:46.515Z,97114.40
2023-04-22T10:33:27.479Z,97116.00
2023-04-22T10:36:18.220Z,97109.20
2023-04-22T10:38:50.931Z,97106.60
2023-04-22T10:41:24.210Z,97106.00
2023-04-22T10:44:00.293Z,97101.20
2023-04-22T10:46:33.005Z,97100.80
2023-04-22T10:49:22.097Z,97099.80
2023-04-22T10:51:52.736Z,97104.40
2023-04-22T10:54:26.497Z,97098.80
2023-04-22T10:57:07.712Z,97099.60
2023-04-22T10:59:53.109Z,97093.80
2023-04-22T11:02:22.046Z,97092.00
2023-04-22T11:04:49.747Z,97091.20
2023-04-22T11:07:20.731Z,97089.00
2023-04-22T11:09:52.106Z,97085.00
2023-04-22T11:12:42.003Z,97083.20
2023-04-22T11:15:18.323Z,97082.20
2023-04-22T11:17:52.458Z,97085.20
2023-04-22T11:20:20.580Z,97083.00
2023-04-22T11:22:51.873Z,97083.80
2023-04-22T11:25:20.212Z,97083.40
2023-04-22T11:27:47.768Z,97082.20
2023-04-22T11:30:17.176Z,97080.60
2023-04-22T11:32:46.967Z,97076.40
2023-04-22T11:35:23.907Z,97071.20
2023-04-22T11:38:00.401Z,97070.00
2023-04-22T11:40:38.299Z,97066.40
2023-04-22T11:43:09.728Z,97065.00
2023-04-22T11:45:39.284Z,97068.60
2023-04-22T11:48:11.197Z,97067.60
2023-04-22T11:50:41.045Z,97071.40
2023-04-22T11:53:24.002Z,97070.20
2023-04-22T11:55:52.060Z,97071.60
2023-04-22T11:58:26.684Z,97069.80
2023-04-22T12:00:56.289Z,97067.00
2023-04-22T12:03:26.846Z,97065.60
2023-04-22T12:06:03.639Z,97062.00
2023-04-22T12:08:44.294Z,97057.60
2023-04-22T12:11:12.709Z,97058.80
2023-04-22T12:13:41.174Z,97065.80
2023-04-22T12:16:17.620Z,97060.20
2023-04-22T12:18:55.593Z,97057.20
2023-04-22T12:21:28.697Z,97057.60
2023-04-22T12:24:08.468Z,97055.80
2023-04-22T12:26:35.086Z,97052.60
2023-04-22T12:29:01.696Z,97051.40
2023-04-22T12:31:28.587Z,97054.40
2023-04-22T12:33:56.170Z,97049.20
2023-04-22T12:36:23.806Z,97049.80
2023-04-22T12:38:51.090Z,97047.80
2023-04-22T12:41:17.733Z,97048.20
2023-04-22T12:43:44.473Z,97045.20
2023-04-22T12:46:11.273Z,97041.80
2023-04-22T12:48:38.166Z,97039.80
2023-04-22T12:51:07.015Z,97035.80
2023-04-22T12:53:34.075Z,97034.60
2023-04-22T12:56:01.004Z,97032.60
2023-04-22T12:58:27.628Z,97032.60
2023-04-22T13:00:54.266Z,97028.20
2023-04-22T13:03:21.038Z,97027.60
2023-04-22T13:05:47.898Z,97023.60
2023-04-22T13:08:15.032Z,97022.40
2023-04-22T13:10:41.670Z,97021.00
2023-04-22T13:15:38.947Z,97017.80
2023-04-22T13:18:06.187Z,97017.60
2023-04-22T13:20:33.238Z,97010.00
2023-04-22T13:22:59.852Z,97009.80
2023-04-22T13:25:26.419Z,97008.00
2023-04-22T13:27:53.142Z,97005.00
2023-04-22T13:30:20.159Z,97004.00
2023-04-22T13:32:46.996Z,97003.80
2023-04-22T13:35:13.785Z,97003.80
2023-04-22T13:37:40.496Z,96997.80
2023-04-22T13:40:08.657Z,96998.60
2023-04-22T13:42:35.825Z,96999.40
2023-04-22T13:45:02.463Z,97000.40
2023-04-22T13:47:29.418Z,96996.40
2023-04-22T13:49:57.817Z,96993.60
2023-04-22T13:52:24.746Z,96992.80
2023-04-22T13:54:51.428Z,96990.00
2023-04-22T13:57:18.225Z,96985.00
2023-04-22T13:59:44.832Z,96987.40
2023-04-22T14:02:11.487Z,96981.00
2023-04-22T14:04:38.063Z,96977.80
2023-04-22T14:07:05.087Z,96977.80
2023-04-22T14:09:31.757Z,96976.80
2023-04-22T14:11:59.046Z,96974.60
2023-04-22T14:14:25.945Z,96971.60
2023-04-22T14:16:52.928Z,96970.00
2023-04-22T14:19:20.187Z,96971.20
2023-04-22T14:21:47.586Z,96965.40
2023-04-22T14:24:14.586Z,96964.80
2023-04-22T14:26:41.602Z,96970.40
2023-04-22T14:29:08.620Z,96967.20
2023-04-22T14:31:35.365Z,96961.60
2023-04-22T14:34:02.092Z,96961.00
2023-04-22T14:36:28.854Z,96960.40
2023-04-22T14:38:55.460Z,96960.00
2023-04-22T14:41:22.278Z,96957.00
2023-04-22T14:43:48.918Z,96948.40
2023-04-22T14:46:15.625Z,96954.00
2023-04-22T14:48:42.504Z,96951.80
2023-04-22T14:51:09.292Z,96949.00
2023-04-22T14:53:36.243Z,96948.20
2023-04-22T14:56:03.581Z,96948.20
2023-04-22T14:58:33.211Z,96944.80
2023-04-22T15:01:00.219Z,96942.40
2023-04-22T15:03:27.693Z,96942.80
2023-04-22T15:05:55.718Z,96940.00
2023-04-22T15:08:25.159Z,96942.60
2023-04-22T15:10:51.940Z,96943.40
2023-04-22T15:13:19.780Z,96939.20
2023-04-22T15:15:47.151Z,96941.20
2023-04-22T15:18:14.196Z,96936.20
2023-04-22T15:20:41.308Z,96935.20
2023-04-22T15:23:07.999Z,96934.40
2023-04-22T15:25:35.805Z,96934.80
2023-04-22T15:28:04.186Z,96936.60
2023-04-22T15:30:31.065Z,96935.00
2023-04-22T15:32:57.910Z,96935.20
2023-04-22T15:35:24.758Z,96935.00
2023-04-22T15:37:52.702Z,96928.60
2023-04-22T15:40:19.434Z,96925.00
2023-04-22T15:42:46.026Z,96927.00
2023-04-22T15:45:12.646Z,96925.20
2023-04-22T15:47:41.210Z,96925.80
2023-04-22T15:50:10.136Z,96924.40
2023-04-22T15:52:38.499Z,96925.80
2023-04-22T15:55:07.663Z,96920.80
2023-04-22T15:57:35.402Z,96925.20
2023-04-22T16:00:13.475Z,96925.40
2023-04-22T16:02:43.415Z,96924.20
2023-04-22T16:05:11.877Z,96927.60
2023-04-22T16:07:40.295Z,96925.80
2023-04-22T16:10:09.015Z,96929.20
2023-04-22T16:12:35.826Z,96926.80
2023-04-22T16:15:02.588Z,96926.60
2023-04-22T16:17:30.175Z,96927.40
2023-04-22T16:19:57.114Z,96922.60
2023-04-22T16:22:23.876Z,96926.40
2023-04-22T16:24:51.245Z,96923.80
2023-04-22T16:27:19.277Z,96925.60
2023-04-22T16:29:46.153Z,96925.80
2023-04-22T16:32:14.047Z,96920.00
2023-04-22T16:34:40.805Z,96914.60
2023-04-22T16:37:08.114Z,96916.60
2023-04-22T16:39:34.766Z,96914.40
2023-04-22T16:42:02.865Z,96911.80
2023-04-22T16:44:29.637Z,96909.00
2023-04-22T16:46:56.297Z,96910.20
2023-04-22T16:49:23.008Z,96909.80
2023-04-22T16:51:49.937Z,96909.20
2023-04-22T16:54:16.563Z,96911.00
2023-04-22T16:56:43.199Z,96914.40
2023-04-22T16:59:09.816Z,96907.40
2023-04-22T17:01:36.502Z,96909.40
2023-04-22T17:04:03.343Z,96905.40
2023-04-22T17:06:31.237Z,96904.80
2023-04-22T17:08:59.866Z,96906.00
2023-04-22T17:11:26.601Z,96902.00
2023-04-22T17:13:53.339Z,96902.00
2023-04-22T17:16:20.002Z,96901.60
2023-04-22T17:18:47.111Z,96898.40
2023-04-22T17:21:14.996Z,96893.80
2023-04-22T17:23:41.507Z,96898.00
2023-04-22T17:26:08.620Z,96897.20
2023-04-22T17:28:35.624Z,96896.80
2023-04-22T17:31:03.854Z,96894.60
2023-04-22T17:33:31.255Z,96895.40
2023-04-22T17:35:57.938Z,96891.00
2023-04-22T17:38:24.581Z,96888.60
2023-04-22T17:40:51.236Z,96886.20
2023-04-22T17:43:17.807Z,96889.00
2023-04-22T17:45:44.456Z,96888.00
2023-04-22T17:48:11.019Z,96885.60
2023-04-22T17:50:37.816Z,96893.00
2023-04-22T17:53:04.400Z,96891.80
2023-04-22T17:55:35.030Z,96892.40
2023-04-22T17:58:03.774Z,96891.20
2023-04-22T18:00:32.871Z,96887.40
2023-04-22T18:03:00.006Z,96890.20
2023-04-22T18:05:27.348Z,96887.00
2023-04-22T18:08:01.675Z,96891.80
2023-04-22T18:10:30.607Z,96901.00
2023-04-22T18:12:57.559Z,96899.20
2023-04-22T18:15:24.257Z,96900.80
2023-04-22T18:17:51.546Z,96906.00
2023-04-22T18:20:19.890Z,96906.80
2023-04-22T18:22:49.117Z,96906.00
2023-04-22T18:25:16.418Z,96909.40
2023-04-22T18:27:43.946Z,96912.20
2023-04-22T18:30:11.295Z,96907.40
2023-04-22T18:32:38.596Z,96907.60
2023-04-22T18:35:06.418Z,96908.20
2023-04-22T18:37:34.888Z,96912.20
2023-04-22T18:40:02.598Z,96907.40
2023-04-22T18:42:30.025Z,96911.40
2023-04-22T18:44:56.679Z,96907.00
2023-04-22T18:47:23.335Z,96908.00
2023-04-22T18:49:50.110Z,96908.00
2023-04-22T18:52:17.269Z,96908.60
2023-04-22T18:54:44.495Z,96912.80
2023-04-22T18:57:11.221Z,96916.60
2023-04-22T18:59:38.233Z,96916.40
2023-04-22T19:02:06.428Z,96917.60
2023-04-22T19:04:33.259Z,96922.60
2023-04-22T19:07:00.200Z,96919.00
2023-04-22T19:09:27.031Z,96922.20
2023-04-22T19:11:53.691Z,96922.00
2023-04-22T19:14:20.657Z,96925.40
2023-04-22T19:16:47.271Z,96925.00
2023-04-22T19:19:13.968Z,96926.80
2023-04-22T19:21:41.080Z,96927.60
2023-04-22T19:24:09.124Z,96924.40
2023-04-22T19:26:35.867Z,96932.40
2023-04-22T19:29:02.543Z,96929.60
2023-04-22T19:31:29.497Z,96930.20
2023-04-22T19:33:56.193Z,96928.60
2023-04-22T19:36:23.051Z,96927.20
2023-04-22T19:38:49.798Z,96923.20
2023-04-22T19:41:16.688Z,96928.40
2023-04-22T19:43:43.442Z,96921.00
2023-04-22T19:46:10.136Z,96921.20
2023-04-22T19:48:37.321Z,96921.60
2023-04-22T19:51:06.774Z,96918.80
2023-04-22T19:53:34.997Z,96916.40
2023-04-22T19:56:03.054Z,96917.00
2023-04-22T19:58:30.645Z,96917.80
2023-04-22T20:00:57.495Z,96914.80
2023-04-22T20:03:25.235Z,96909.20
2023-04-22T20:05:52.230Z,96906.40
2023-04-22T20:08:20.400Z,96905.40
2023-04-22T20:10:49.725Z,96906.20
2023-04-22T20:13:17.491Z,96904.20
2023-04-22T20:15:44.687Z,96905.00
2023-04-22T20:18:12.114Z,96910.80
2023-04-22T20:20:40.767Z,96915.20
2023-04-22T20:23:12.720Z,96909.40
2023-04-22T20:25:45.953Z,96915.00
2023-04-22T20:28:13.063Z,96912.40
2023-04-22T20:30:40.792Z,96913.00
2023-04-22T20:33:07.851Z,96911.00
2023-04-22T20:35:35.961Z,96908.40
2023-04-22T20:38:03.795Z,96910.60
2023-04-22T20:40:30.979Z,96905.60
2023-04-22T20:43:01.059Z,96906.80
2023-04-22T20:45:28.664Z,96904.60
2023-04-22T20:47:57.759Z,96906.20
2023-04-22T20:50:24.680Z,96903.20
2023-04-22T20:52:52.570Z,96902.40
2023-04-22T20:55:19.599Z,96901.60
2023-04-22T20:57:46.852Z,96902.00
2023-04-22T21:00:14.489Z,96894.60
2023-04-22T21:02:43.498Z,96900.40
2023-04-22T21:05:11.901Z,96899.00
2023-04-22T21:07:40.055Z,96900.40
2023-04-22T21:10:08.396Z,96901.00
2023-04-22T21:12:35.855Z,96900.80
2023-04-22T21:15:03.274Z,96899.60
2023-04-22T21:17:31.973Z,96904.60
2023-04-22T21:19:59.517Z,96901.40
2023-04-22T21:22:26.771Z,96907.80
2023-04-22T21:24:54.080Z,96902.80
2023-04-22T21:27:22.288Z,96901.00
2023-04-22T21:29:50.166Z,96901.40
2023-04-22T21:32:20.007Z,96903.20
2023-04-22T21:34:46.717Z,96905.80
2023-04-22T21:37:13.836Z,96905.60
2023-04-22T21:39:40.906Z,96908.60
2023-04-22T21:42:08.683Z,96905.00
2023-04-22T21:44:37.758Z,96905.60
2023-04-22T21:47:05.656Z,96907.80
2023-04-22T21:49:32.547Z,96907.60
2023-04-22T21:51:59.641Z,96903.00
2023-04-22T21:54:26.459Z,96899.20
2023-04-22T21:56:53.204Z,96901.20
2023-04-22T21:59:19.917Z,96904.80
2023-04-22T22:01:46.754Z,96897.80
2023-04-22T22:04:16.148Z,96902.00
2023-04-22T22:06:45.043Z,96903.20
2023-04-22T22:09:14.232Z,96905.40
2023-04-22T22:11:40.925Z,96902.40
2023-04-22T22:14:07.506Z,96903.20
2023-04-22T22:16:34.434Z,96898.80
2023-04-22T22:19:02.748Z,96902.80
2023-04-22T22:21:29.678Z,96902.00
2023-04-22T22:23:57.571Z,96903.20
2023-04-22T22:26:24.607Z,96906.00
2023-04-22T22:28:51.245Z,96903.20
2023-04-22T22:31:18.406Z,96905.40
2023-04-22T22:33:45.761Z,96902.80
2023-04-22T22:36:12.520Z,96902.20
2023-04-22T22:38:39.163Z,96901.40
2023-04-22T22:41:05.822Z,96907.40
2023-04-22T22:43:32.442Z,96909.00
2023-04-22T22:45:59.126Z,96914.00
2023-04-22T22:48:26.052Z,96916.80
2023-04-22T22:50:53.053Z,96916.80
2023-04-22T22:53:21.298Z,96917.80
2023-04-22T22:55:47.881Z,96922.20
2023-04-22T22:58:14.462Z,96920.00
2023-04-22T23:00:41.094Z,96920.00
2023-04-22T23:03:07.992Z,96916.20
2023-04-22T23:05:34.769Z,96912.60
2023-04-22T23:08:01.351Z,96914.00
2023-04-22T23:10:27.925Z,96913.20
2023-04-22T23:12:54.504Z,96914.40
2023-04-22T23:15:21.171Z,96918.80
2023-04-22T23:17:50.752Z,96914.40
2023-04-22T23:20:18.231Z,96910.80
2023-04-22T23:22:45.569Z,96910.80
2023-04-22T23:25:13.641Z,96914.40
2023-04-22T23:27:41.710Z,96912.60
2023-04-22T23:30:09.429Z,96917.80
2023-04-22T23:32:40.534Z,96914.20
2023-04-22T23:35:13.922Z,96917.00
2023-04-22T23:37:45.473Z,96915.40
2023-04-22T23:40:13.460Z,96909.40
2023-04-22T23:42:40.210Z,96912.80
2023-04-22T23:45:08.165Z,96910.60
2023-04-22T23:47:35.108Z,96912.00
2023-04-22T23:50:02.717Z,96919.80
2023-04-22T23:52:29.365Z,96916.80
2023-04-22T23:54:57.728Z,96917.60
2023-04-22T23:57:24.933Z,96912.60
2023-04-22T23:59:52.252Z,96917.20
